Time;durP1;ratioP1;P1;durP2;ratioP2;P2;SDS_P1;SDS_P2;PMS_P1;PMS_P2;Temp;Humidity;BMP_temperature;BMP_pressure;BME280_temperature;BME280_humidity;BME280_pressure;Samples;Min_cycle;Max_cycle;Signal;HPM_P1;HPM_P2
2022/01/10 00:01:11;;;;;;;26.98;10.50;;;;;;;-146.64;100.00;77725.41;5102082;28;20027;-76
2022/01/10 00:03:59;;;;;;;29.33;11.45;;;;;;;-146.64;100.00;78254.47;5100072;28;20086;-77
2022/01/10 00:06:25;;;;;;;25.15;11.57;;;;;;;-146.64;100.00;78254.47;5087907;28;20035;-77
2022/01/10 00:08:50;;;;;;;24.40;11.18;;;;;;;-146.64;100.00;78783.59;5107900;28;20031;-77
2022/01/10 00:11:15;;;;;;;30.95;11.65;;;;;;;-146.64;100.00;79048.19;5088688;28;20028;-77
2022/01/10 00:13:41;;;;;;;28.58;11.43;;;;;;;-146.64;100.00;79577.41;5107232;28;20089;-77
2022/01/10 00:16:06;;;;;;;26.67;10.13;;;;;;;-146.64;100.00;79312.78;5112122;28;20032;-77
2022/01/10 00:18:31;;;;;;;23.27;9.75;;;;;;;-146.64;100.00;79048.19;5088256;28;20028;-77
2022/01/10 00:20:56;;;;;;;22.90;10.20;;;;;;;-146.64;100.00;79312.78;5088384;28;20118;-76
2022/01/10 00:23:22;;;;;;;27.10;9.70;;;;;;;-146.64;100.00;79577.41;5114450;28;20031;-76
2022/01/10 00:25:47;;;;;;;23.10;10.18;;;;;;;-146.64;100.00;79577.41;5098861;28;20046;-76
2022/01/10 00:28:12;;;;;;;27.85;10.02;;;;;;;-146.64;100.00;79312.78;5107685;28;20401;-77
2022/01/10 00:30:38;;;;;;;23.67;9.43;;;;;;;-146.64;100.00;78783.59;5122727;27;20505;-77
2022/01/10 00:33:03;;;;;;;30.75;10.07;;;;;;;-146.64;100.00;78783.59;5111172;28;20031;-78
2022/01/10 00:35:28;;;;;;;26.13;10.48;;;;;;;-146.64;100.00;79048.19;5111784;28;20072;-77
2022/01/10 00:37:54;;;;;;;23.65;9.75;;;;;;;-146.64;100.00;79048.19;5107345;28;20035;-77
2022/01/10 00:40:19;;;;;;;28.88;9.73;;;;;;;-146.64;100.00;78783.59;5114719;28;20532;-77
2022/01/10 00:42:53;;;;;;;24.83;9.93;;;;;;;-146.64;100.00;78783.59;5097666;28;20038;-76
2022/01/10 00:45:23;;;;;;;21.52;9.10;;;;;;;-146.64;100.00;78783.59;5091925;28;20402;-76
2022/01/10 00:47:49;;;;;;;32.90;10.23;;;;;;;-146.64;100.00;78519.03;5106891;27;20024;-77
2022/01/10 00:50:15;;;;;;;35.63;9.18;;;;;;;-146.64;100.00;78519.03;5094252;27;20031;-76
2022/01/10 00:52:40;;;;;;;20.48;8.50;;;;;;;-146.64;100.00;78519.03;5108963;28;20158;-76
2022/01/10 00:55:06;;;;;;;29.10;9.18;;;;;;;-146.64;100.00;78519.03;5086193;28;20130;-76
2022/01/10 00:57:31;;;;;;;19.17;8.45;;;;;;;-146.64;100.00;77989.94;5090427;28;20023;-76
2022/01/10 00:59:57;;;;;;;16.73;8.27;;;;;;;-146.64;100.00;77989.94;5080628;27;20410;-76
2022/01/10 01:02:25;;;;;;;23.02;8.95;;;;;;;-146.64;100.00;78783.59;5100628;27;20028;-76
2022/01/10 01:04:52;;;;;;;23.95;9.05;;;;;;;-146.64;100.00;79312.78;5098477;27;20463;-76
2022/01/10 01:07:20;;;;;;;30.17;9.23;;;;;;;-146.64;100.00;79312.78;5108163;27;20049;-76
2022/01/10 01:09:53;;;;;;;21.90;8.57;;;;;;;-146.64;100.00;79048.19;5114258;27;20363;-76
2022/01/10 01:12:31;;;;;;;24.15;9.07;;;;;;;-146.64;100.00;78783.59;5099350;27;20474;-76
2022/01/10 01:15:07;;;;;;;34.35;9.73;;;;;;;-146.64;100.00;79048.19;5108355;27;20515;-76
2022/01/10 01:17:35;;;;;;;44.75;17.70;;;;;;;-146.64;100.00;79577.41;5130507;27;20108;-76
2022/01/10 01:20:09;;;;;;;60.03;23.08;;;;;;;-146.64;100.00;79577.41;5106658;27;20055;-76
2022/01/10 01:25:18;;;;;;;47.05;19.88;;;;;;;-146.64;100.00;79048.19;5116729;27;20488;-76
2022/01/10 01:27:44;;;;;;;62.45;20.25;;;;;;;-146.64;100.00;79048.19;5106969;27;20064;-76
2022/01/10 01:30:10;;;;;;;36.15;16.95;;;;;;;-146.64;100.00;79577.41;5094137;27;20034;-76
2022/01/10 01:32:35;;;;;;;32.08;14.15;;;;;;;-146.64;100.00;80106.72;5098985;27;20042;-76
2022/01/10 01:35:06;;;;;;;26.98;12.57;;;;;;;-146.64;100.00;80636.09;5096448;27;20070;-77
2022/01/10 01:37:32;;;;;;;33.55;13.57;;;;;;;-146.64;100.00;80636.09;5103399;27;20470;-76
2022/01/10 01:39:58;;;;;;;26.45;12.02;;;;;;;-146.64;100.00;80900.81;5112884;27;20087;-76
2022/01/10 01:42:39;;;;;;;28.65;12.40;;;;;;;-146.64;100.00;80636.09;5111777;27;20031;-76
2022/01/10 01:45:07;;;;;;;33.33;11.68;;;;;;;-146.64;100.00;80900.81;5130407;27;20355;-76
2022/01/10 01:47:33;;;;;;;37.90;11.68;;;;;;;-146.64;100.00;81165.53;5107485;27;20016;-76
2022/01/10 01:49:59;;;;;;;28.98;10.43;;;;;;;-146.64;100.00;81430.28;5101089;28;20028;-76
2022/01/10 01:52:25;;;;;;;21.73;8.98;;;;;;;-146.64;100.00;81430.28;5121285;27;20444;-76
2022/01/10 01:54:51;;;;;;;28.38;9.32;;;;;;;-146.64;100.00;81695.03;5114284;27;20027;-76
2022/01/10 01:57:17;;;;;;;19.85;10.55;;;;;;;-146.64;100.00;81959.81;5112683;27;20106;-76
2022/01/10 01:59:42;;;;;;;20.40;9.43;;;;;;;-146.64;100.00;81959.81;5104156;27;20528;-76
2022/01/10 02:02:07;;;;;;;29.35;11.18;;;;;;;-146.64;100.00;81695.03;5133078;27;20030;-76
2022/01/10 02:04:33;;;;;;;32.47;10.82;;;;;;;-146.64;100.00;81695.03;5103600;27;20084;-76
2022/01/10 02:06:58;;;;;;;27.10;10.18;;;;;;;-146.64;100.00;81695.03;5104398;27;20431;-76
2022/01/10 02:09:23;;;;;;;33.15;10.05;;;;;;;-146.64;100.00;81959.81;5109115;27;20093;-76
2022/01/10 02:11:49;;;;;;;24.10;9.32;;;;;;;-146.64;100.00;81959.81;5128160;27;20051;-76
2022/01/10 02:14:18;;;;;;;25.25;9.85;;;;;;;-146.64;100.00;81695.03;5108094;27;20065;-76
2022/01/10 02:16:45;;;;;;;19.38;9.93;;;;;;;-146.64;100.00;81959.81;5111370;27;20470;-76
2022/01/10 02:19:12;;;;;;;28.98;9.90;;;;;;;-146.64;100.00;82224.63;5110257;27;20459;-76
2022/01/10 02:21:38;;;;;;;25.38;9.82;;;;;;;-146.64;100.00;82224.63;5093852;27;20027;-76
2022/01/10 02:24:04;;;;;;;25.25;10.23;;;;;;;-146.64;100.00;82224.63;5110247;27;20035;-76
2022/01/10 02:26:30;;;;;;;20.60;7.83;;;;;;;-146.64;100.00;81959.81;5130968;27;20461;-76
2022/01/10 02:28:55;;;;;;;27.75;9.55;;;;;;;-146.64;100.00;81959.81;5129454;27;20307;-76
2022/01/10 02:31:21;;;;;;;26.10;9.57;;;;;;;-146.64;100.00;81959.81;5123222;27;20027;-76
2022/01/10 02:33:48;;;;;;;21.95;9.70;;;;;;;-146.64;100.00;81959.81;5109962;27;20027;-76
2022/01/10 02:36:28;;;;;;;23.38;10.38;;;;;;;-146.64;100.00;82224.63;5095931;27;20031;-76
2022/01/10 02:39:04;;;;;;;23.30;9.70;;;;;;;-146.64;100.00;82224.63;5122405;27;20497;-76
2022/01/10 02:41:32;;;;;;;25.08;10.18;;;;;;;-146.64;100.00;82224.63;5115594;27;20050;-76
2022/01/10 02:43:59;;;;;;;22.90;9.55;;;;;;;-146.64;100.00;82224.63;5101842;27;20027;-76
2022/01/10 02:46:26;;;;;;;24.77;9.88;;;;;;;-146.64;100.00;82224.63;5105519;27;20023;-76
2022/01/10 02:48:51;;;;;;;31.45;11.05;;;;;;;-146.64;100.00;82489.44;5102116;28;20100;-76
2022/01/10 02:51:17;;;;;;;25.75;10.77;;;;;;;-146.64;100.00;82754.28;5107423;27;20055;-76
2022/01/10 02:53:42;;;;;;;27.38;11.38;;;;;;;-146.64;100.00;82754.28;5112948;27;20023;-76
2022/01/10 02:56:08;;;;;;;24.60;10.23;;;;;;;-146.64;100.00;83019.13;5112086;27;20030;-76
2022/01/10 02:58:33;;;;;;;19.80;10.60;;;;;;;-146.64;100.00;83284.00;5104274;27;20114;-76
2022/01/10 03:00:59;;;;;;;27.63;10.48;;;;;;;-146.64;100.00;83284.00;5104475;27;20110;-76
2022/01/10 03:03:29;;;;;;;24.55;10.57;;;;;;;-146.64;100.00;83284.00;5118927;27;20026;-76
2022/01/10 03:05:54;;;;;;;25.58;10.80;;;;;;;-146.64;100.00;83284.00;5100979;28;20024;-76
2022/01/10 03:08:20;;;;;;;16.92;10.45;;;;;;;-146.64;100.00;83548.88;5121985;27;20062;-76
2022/01/10 03:10:45;;;;;;;26.23;10.68;;;;;;;-146.64;100.00;83548.88;5092705;28;20103;-76
2022/01/10 03:13:11;;;;;;;23.20;10.77;;;;;;;-146.64;100.00;83548.88;5115398;27;20048;-76
2022/01/10 03:15:36;;;;;;;32.80;11.90;;;;;;;-146.64;100.00;83548.88;5103591;27;20038;-76
2022/01/10 03:18:01;;;;;;;22.85;12.05;;;;;;;-146.64;100.00;83548.88;5110326;27;20046;-76
2022/01/10 03:20:27;;;;;;;23.65;11.73;;;;;;;-146.64;100.00;83548.88;5108481;27;20039;-76
2022/01/10 03:22:53;;;;;;;25.20;10.88;;;;;;;-146.64;100.00;83548.88;5092011;27;20426;-76
2022/01/10 03:25:19;;;;;;;22.20;10.97;;;;;;;-146.64;100.00;83548.88;5106118;27;20027;-76
2022/01/10 03:27:45;;;;;;;23.10;11.07;;;;;;;-146.64;100.00;83548.88;5107903;27;20038;-76
2022/01/10 03:30:10;;;;;;;28.90;10.63;;;;;;;-146.64;100.00;83548.88;5111136;27;20320;-76
2022/01/10 03:32:36;;;;;;;25.13;11.52;;;;;;;-146.64;100.00;83813.78;5093523;27;20090;-76
2022/01/10 03:35:02;;;;;;;27.92;12.95;;;;;;;-146.64;100.00;83813.78;5101698;27;20028;-76
2022/01/10 03:37:27;;;;;;;21.17;10.57;;;;;;;-146.64;100.00;84078.72;5130819;27;20371;-76
2022/01/10 03:39:52;;;;;;;20.73;11.60;;;;;;;-146.64;100.00;84343.66;5091369;28;20458;-76
2022/01/10 03:42:18;;;;;;;31.23;12.35;;;;;;;-146.64;100.00;84343.66;5104568;27;20355;-76
2022/01/10 03:44:43;;;;;;;26.55;12.18;;;;;;;-146.64;100.00;84608.59;5107429;28;20387;-76
2022/01/10 03:47:10;;;;;;;35.90;13.27;;;;;;;-146.64;100.00;84608.59;5121880;27;20027;-76
2022/01/10 03:49:36;;;;;;;23.50;12.93;;;;;;;-146.64;100.00;84873.56;5110625;27;20080;-76
2022/01/10 03:52:02;;;;;;;23.38;12.57;;;;;;;-146.64;100.00;84873.56;5094300;27;20047;-76
2022/01/10 03:54:27;;;;;;;29.98;12.35;;;;;;;-146.64;100.00;84873.56;5093714;28;20037;-76
2022/01/10 03:56:53;;;;;;;31.20;12.65;;;;;;;-146.64;100.00;84873.56;5101894;27;20359;-76
2022/01/10 03:59:18;;;;;;;28.13;12.68;;;;;;;-146.64;100.00;85138.56;5091597;28;20053;-76
2022/01/10 04:01:43;;;;;;;30.55;12.85;;;;;;;-146.64;100.00;85138.56;5110197;28;20027;-76
2022/01/10 04:04:09;;;;;;;31.38;12.45;;;;;;;-146.64;100.00;85138.56;5099682;28;20031;-76
2022/01/10 04:06:35;;;;;;;31.50;13.45;;;;;;;-146.64;100.00;85138.56;5105165;28;20027;-76
2022/01/10 04:09:00;;;;;;;27.33;13.00;;;;;;;-146.64;100.00;85138.56;5108077;27;20442;-76
2022/01/10 04:11:26;;;;;;;37.45;12.95;;;;;;;-146.64;100.00;85403.56;5095374;28;20057;-76
2022/01/10 04:13:51;;;;;;;24.27;13.13;;;;;;;-146.64;100.00;85403.56;5093906;28;20375;-76
2022/01/10 04:16:16;;;;;;;24.98;13.70;;;;;;;-146.64;100.00;85933.66;5103712;28;20038;-77
2022/01/10 04:18:42;;;;;;;34.03;14.13;;;;;;;-146.64;100.00;85933.66;5108903;28;20471;-76
2022/01/10 04:21:07;;;;;;;37.00;14.38;;;;;;;-146.64;100.00;85933.66;5084835;27;20533;-76
2022/01/10 04:23:33;;;;;;;29.85;13.25;;;;;;;-146.64;100.00;85933.66;5124502;27;20368;-76
2022/01/10 04:25:58;;;;;;;36.30;13.80;;;;;;;-146.64;100.00;85933.66;5122328;27;20038;-76
2022/01/10 04:28:23;;;;;;;27.13;12.40;;;;;;;-146.64;100.00;85933.66;5108860;28;20049;-76
2022/01/10 04:30:49;;;;;;;28.33;12.77;;;;;;;-146.64;100.00;85933.66;5112001;28;20378;-76
2022/01/10 04:33:18;;;;;;;36.22;13.05;;;;;;;-146.64;100.00;85933.66;5089414;28;20118;-76
2022/01/10 04:35:43;;;;;;;32.47;13.60;;;;;;;-146.64;100.00;85933.66;5109368;28;20497;-76
2022/01/10 04:38:09;;;;;;;32.97;13.07;;;;;;;-146.64;100.00;85933.66;5106047;27;20035;-76
2022/01/10 04:40:34;;;;;;;27.77;14.73;;;;;;;-146.64;100.00;86463.78;5093013;28;20023;-76
2022/01/10 04:43:00;;;;;;;35.33;14.85;;;;;;;-146.64;100.00;86728.88;5097068;27;20489;-76
2022/01/10 04:45:25;;;;;;;36.92;14.05;;;;;;;-146.64;100.00;86463.78;5108726;27;20023;-76
2022/01/10 04:47:50;;;;;;;32.13;14.15;;;;;;;-146.64;100.00;86463.78;5099236;28;20070;-76
2022/01/10 04:52:48;;;;;;;33.60;14.50;;;;;;;-146.64;100.00;86728.88;5128083;27;20035;-76
2022/01/10 04:55:14;;;;;;;42.13;15.20;;;;;;;-146.64;100.00;86994.00;5102909;27;20038;-76
2022/01/10 04:57:40;;;;;;;39.45;14.00;;;;;;;-146.64;100.00;86994.00;5091347;28;20031;-76
2022/01/10 05:00:07;;;;;;;31.70;13.18;;;;;;;-146.64;100.00;86728.88;5089116;28;20034;-76
2022/01/10 05:02:33;;;;;;;41.75;14.65;;;;;;;-146.64;100.00;86994.00;5108013;28;20168;-76
2022/01/10 05:04:58;;;;;;;35.80;14.73;;;;;;;-146.64;100.00;86994.00;5091578;27;20117;-76
2022/01/10 05:07:23;;;;;;;36.53;13.98;;;;;;;-146.64;100.00;86994.00;5104140;27;20051;-76
2022/01/10 05:09:48;;;;;;;33.50;14.50;;;;;;;-146.64;100.00;87259.13;5106566;27;20117;-76
2022/01/10 05:12:14;;;;;;;34.30;15.20;;;;;;;-146.64;100.00;87259.13;5105842;28;20100;-76
2022/01/10 05:14:40;;;;;;;28.15;12.75;;;;;;;-146.64;100.00;87259.13;5095725;27;20435;-76
2022/01/10 05:17:05;;;;;;;32.22;13.80;;;;;;;-146.64;100.00;87259.13;5108868;27;20035;-76
2022/01/10 05:19:31;;;;;;;30.13;13.48;;;;;;;-146.64;100.00;87259.13;5100730;28;20494;-76
2022/01/10 05:21:56;;;;;;;29.52;13.23;;;;;;;-146.64;100.00;87524.28;5107185;27;20289;-76
2022/01/10 05:24:22;;;;;;;37.70;14.43;;;;;;;-146.64;100.00;87524.28;5100730;27;20027;-76
2022/01/10 05:26:47;;;;;;;38.20;14.95;;;;;;;-146.64;100.00;87789.44;5094342;27;20034;-76
2022/01/10 05:29:12;;;;;;;28.27;14.13;;;;;;;-146.64;100.00;87789.44;5094464;27;20039;-76
2022/01/10 05:31:37;;;;;;;34.58;14.20;;;;;;;-146.64;100.00;87789.44;5108129;27;20020;-76
2022/01/10 05:34:03;;;;;;;32.72;13.90;;;;;;;-146.64;100.00;88054.63;5081140;28;20051;-76
2022/01/10 05:36:28;;;;;;;37.28;15.43;;;;;;;-146.64;100.00;88319.81;5085575;27;20028;-76
2022/01/10 05:38:56;;;;;;;34.28;17.02;;;;;;;-146.64;100.00;88585.03;5108245;28;20486;-76
2022/01/10 05:41:22;;;;;;;36.95;14.55;;;;;;;-146.64;100.00;88319.81;5104632;27;20034;-76
2022/01/10 05:43:48;;;;;;;37.45;16.17;;;;;;;-146.64;100.00;87524.28;5111029;27;20031;-76
2022/01/10 05:46:16;;;;;;;37.45;15.18;;;;;;;-146.64;100.00;87524.28;5102029;27;20031;-76
2022/01/10 05:48:46;;;;;;;36.47;14.30;;;;;;;-146.64;100.00;87789.44;5101872;27;20037;-76
2022/01/10 05:51:13;;;;;;;43.95;15.90;;;;;;;-146.64;100.00;87524.28;5113066;27;20077;-76
2022/01/10 05:53:38;;;;;;;29.42;14.30;;;;;;;-146.64;100.00;87524.28;5120105;27;20085;-76
2022/01/10 05:56:04;;;;;;;37.70;15.73;;;;;;;-146.64;100.00;87259.13;5105209;27;20058;-76
2022/01/10 05:58:29;;;;;;;36.63;14.05;;;;;;;-146.64;100.00;87259.13;5111154;27;20106;-76
2022/01/10 06:00:54;;;;;;;34.85;14.60;;;;;;;-146.64;100.00;87524.28;5091708;27;20031;-76
2022/01/10 06:03:19;;;;;;;43.72;16.25;;;;;;;-146.64;100.00;87789.44;5101176;27;20027;-76
2022/01/10 06:05:45;;;;;;;33.10;14.15;;;;;;;-146.64;100.00;88054.63;5127798;27;20023;-76
2022/01/10 06:08:10;;;;;;;29.05;12.63;;;;;;;-146.64;100.00;88054.63;5133036;27;20531;-76
2022/01/10 06:10:36;;;;;;;44.33;14.63;;;;;;;-146.64;100.00;88054.63;5094376;27;20051;-76
2022/01/10 06:13:02;;;;;;;41.80;14.52;;;;;;;-146.64;100.00;88054.63;5108404;27;20057;-76
2022/01/10 06:15:27;;;;;;;42.08;14.52;;;;;;;-146.64;100.00;87789.44;5106630;28;20131;-76
2022/01/10 06:17:53;;;;;;;38.72;14.90;;;;;;;-146.64;100.00;87789.44;5086403;27;20979;-76
2022/01/10 06:20:18;;;;;;;30.65;14.27;;;;;;;-146.64;100.00;87789.44;5122435;27;20032;-76
2022/01/10 06:22:44;;;;;;;31.50;14.88;;;;;;;-146.64;100.00;87789.44;5110381;27;20035;-76
2022/01/10 06:25:13;;;;;;;39.45;13.35;;;;;;;-146.64;100.00;87524.28;5113028;27;20478;-76
2022/01/10 06:27:38;;;;;;;38.05;13.85;;;;;;;-146.64;100.00;87524.28;5106102;27;20015;-76
2022/01/10 06:30:04;;;;;;;41.40;14.18;;;;;;;-146.64;100.00;86728.88;5124971;27;20026;-76
2022/01/10 06:32:30;;;;;;;40.90;15.55;;;;;;;-146.64;100.00;86463.78;5111031;27;20027;-76
2022/01/10 06:34:57;;;;;;;33.25;13.98;;;;;;;-146.64;100.00;86198.72;5096352;27;20085;-76
2022/01/10 06:37:22;;;;;;;33.10;14.35;;;;;;;-146.64;100.00;86198.72;5113306;27;20084;-76
2022/01/10 06:39:47;;;;;;;35.17;13.68;;;;;;;-146.64;100.00;86198.72;5109181;27;20039;-76
2022/01/10 06:42:13;;;;;;;35.15;14.77;;;;;;;-146.64;100.00;85933.66;5110892;27;20034;-76
2022/01/10 06:44:38;;;;;;;38.50;14.90;;;;;;;-146.64;100.00;85933.66;5109142;27;20022;-76
2022/01/10 06:47:04;;;;;;;31.63;14.45;;;;;;;-146.64;100.00;86198.72;5107559;27;20424;-75
2022/01/10 06:49:29;;;;;;;44.17;13.80;;;;;;;-146.64;100.00;86198.72;5110433;27;20134;-75
2022/01/10 06:51:54;;;;;;;39.13;13.90;;;;;;;-146.64;100.00;85933.66;5104484;27;20043;-75
2022/01/10 06:54:20;;;;;;;29.08;13.35;;;;;;;-146.64;100.00;86198.72;5109989;27;20122;-75
2022/01/10 06:56:45;;;;;;;38.10;14.27;;;;;;;-146.64;100.00;85933.66;5105760;27;20478;-75
2022/01/10 06:59:10;;;;;;;34.50;13.15;;;;;;;-146.64;100.00;86198.72;5093920;27;20036;-75
2022/01/10 07:01:36;;;;;;;29.23;13.82;;;;;;;-146.64;100.00;86463.78;5128651;27;20492;-75
2022/01/10 07:04:01;;;;;;;31.77;13.32;;;;;;;-146.64;100.00;86198.72;5107869;27;20453;-75
2022/01/10 07:06:27;;;;;;;36.13;13.98;;;;;;;-146.64;100.00;85933.66;5117555;27;20408;-75
2022/01/10 07:08:52;;;;;;;43.75;13.65;;;;;;;-146.64;100.00;85933.66;5095553;28;20031;-75
2022/01/10 07:11:17;;;;;;;40.30;13.90;;;;;;;-146.64;100.00;86198.72;5101424;27;20104;-75
2022/01/10 07:13:43;;;;;;;26.55;13.57;;;;;;;-146.64;100.00;85933.66;5107791;27;20027;-74
2022/01/10 07:16:08;;;;;;;35.20;13.45;;;;;;;-146.64;100.00;86463.78;5111496;27;20035;-74
2022/01/10 07:18:33;;;;;;;45.45;15.02;;;;;;;-146.64;100.00;86728.88;5080571;28;20425;-75
2022/01/10 07:20:58;;;;;;;31.88;14.35;;;;;;;-146.64;100.00;86463.78;5097391;28;20027;-74
2022/01/10 07:23:24;;;;;;;36.97;13.30;;;;;;;-146.64;100.00;86728.88;5101003;27;20096;-74
2022/01/10 07:25:50;;;;;;;34.63;14.60;;;;;;;-146.64;100.00;86728.88;5130897;27;20426;-74
2022/01/10 07:28:15;;;;;;;41.70;14.02;;;;;;;-146.64;100.00;87259.13;5078677;27;20427;-74
2022/01/10 07:30:41;;;;;;;40.00;13.43;;;;;;;-146.64;100.00;87524.28;5111914;27;20023;-74
2022/01/10 07:33:06;;;;;;;32.30;14.23;;;;;;;-146.64;100.00;86994.00;5110431;27;20027;-74
2022/01/10 07:35:32;;;;;;;37.42;15.20;;;;;;;-146.64;100.00;86463.78;5101643;27;20068;-75
2022/01/10 07:37:57;;;;;;;37.65;15.23;;;;;;;-146.64;100.00;85933.66;5112292;27;20113;-75
2022/01/10 07:40:24;;;;;;;36.95;14.00;;;;;;;-146.64;100.00;85933.66;5100733;27;20030;-74
2022/01/10 07:42:49;;;;;;;36.20;15.40;;;;;;;-146.64;100.00;85668.59;5111728;27;20050;-74
2022/01/10 07:45:15;;;;;;;40.78;15.98;;;;;;;-146.64;100.00;85668.59;5108771;27;20069;-74
2022/01/10 07:47:40;;;;;;;33.35;15.20;;;;;;;-146.64;100.00;85403.56;5085074;27;20053;-74
2022/01/10 07:50:06;;;;;;;43.00;13.77;;;;;;;-146.64;100.00;84608.59;5091311;27;20115;-74
2022/01/10 07:52:31;;;;;;;35.28;15.45;;;;;;;-146.64;100.00;84608.59;5088889;27;20049;-74
2022/01/10 07:54:57;;;;;;;36.13;14.70;;;;;;;-146.64;100.00;84608.59;5094422;28;20024;-74
2022/01/10 07:57:22;;;;;;;42.25;15.60;;;;;;;-146.64;100.00;84608.59;5110039;27;20023;-74
2022/01/10 07:59:47;;;;;;;37.53;15.23;;;;;;;-146.64;100.00;84873.56;5103845;27;20024;-74
2022/01/10 08:02:13;;;;;;;31.13;14.43;;;;;;;-146.64;100.00;84873.56;5081249;27;20539;-74
2022/01/10 08:04:38;;;;;;;36.00;17.45;;;;;;;-146.64;100.00;84343.66;5108380;27;20058;-75
2022/01/10 08:07:04;;;;;;;35.90;17.40;;;;;;;-146.64;100.00;84343.66;5092718;28;20041;-75
2022/01/10 08:09:29;;;;;;;41.42;18.27;;;;;;;-146.64;100.00;84078.72;5107617;27;20043;-74
2022/01/10 08:11:59;;;;;;;50.85;22.02;;;;;;;-146.64;100.00;84078.72;5094896;28;20490;-74
2022/01/10 08:14:27;;;;;;;39.10;17.05;;;;;;;-146.64;100.00;83548.88;5109350;27;20027;-74
2022/01/10 08:16:53;;;;;;;31.83;15.90;;;;;;;-146.64;100.00;83019.13;5118605;27;20031;-74
2022/01/10 08:19:18;;;;;;;36.10;14.63;;;;;;;-146.64;100.00;83019.13;5109662;28;20026;-74
2022/01/10 08:21:43;;;;;;;39.15;15.00;;;;;;;-146.64;100.00;82754.28;5091218;27;20428;-74
2022/01/10 08:24:09;;;;;;;33.13;16.67;;;;;;;-146.64;100.00;83019.13;5113672;27;20120;-75
2022/01/10 08:26:34;;;;;;;40.03;14.05;;;;;;;-146.64;100.00;82754.28;5109246;28;20132;-75
2022/01/10 08:28:59;;;;;;;29.08;13.77;;;;;;;-146.64;100.00;82754.28;5104277;28;20136;-75
2022/01/10 08:31:25;;;;;;;30.67;13.55;;;;;;;-146.64;100.00;82489.44;5129644;28;20053;-74
2022/01/10 08:33:50;;;;;;;33.85;14.45;;;;;;;-146.64;100.00;82754.28;5088171;28;20038;-74
2022/01/10 08:36:16;;;;;;;33.65;14.20;;;;;;;-146.64;100.00;82754.28;5105233;27;20359;-74
2022/01/10 08:38:41;;;;;;;33.70;14.77;;;;;;;-146.64;100.00;82224.63;5100027;27;20023;-74
2022/01/10 08:41:07;;;;;;;35.90;16.23;;;;;;;-146.64;100.00;81430.28;5109134;27;20037;-74
2022/01/10 08:43:32;;;;;;;40.97;15.98;;;;;;;-146.64;100.00;80371.41;5107704;27;20031;-74
2022/01/10 08:45:57;;;;;;;38.65;16.45;;;;;;;-146.64;100.00;79312.78;5094051;27;20123;-74
2022/01/10 08:48:22;;;;;;;33.03;15.35;;;;;;;-146.64;100.00;78783.59;5095184;27;20532;-74
2022/01/10 08:50:48;;;;;;;34.67;15.45;;;;;;;-146.64;100.00;77989.94;5085386;27;20058;-74
2022/01/10 08:53:13;;;;;;;38.95;15.75;;;;;;;-146.64;100.00;77460.91;5111556;27;20131;-74
2022/01/10 08:55:39;;;;;;;41.10;16.60;;;;;;;-146.64;100.00;77725.41;5106908;27;20384;-74
2022/01/10 08:58:04;;;;;;;36.50;16.45;;;;;;;-146.64;100.00;77196.41;5122780;27;20117;-74
2022/01/10 09:00:30;;;;;;;34.85;16.80;;;;;;;-146.64;100.00;76403.06;5121048;27;20111;-74
2022/01/10 09:02:55;;;;;;;42.78;15.68;;;;;;;-146.64;100.00;75609.88;5109816;28;20496;-74
2022/01/10 09:05:20;;;;;;;36.95;16.08;;;;;;;-146.64;100.00;74552.53;5105160;27;20383;-74
2022/01/10 09:07:47;;;;;;;41.08;17.30;;;;;;;-146.64;100.00;73759.69;5104225;27;20561;-74
2022/01/10 09:10:12;;;;;;;37.55;16.38;;;;;;;-146.64;100.00;72438.66;5091313;27;20015;-75
2022/01/10 09:12:38;;;;;;;38.70;15.90;;;;;;;-146.64;100.00;73495.47;5105766;27;20386;-74
2022/01/10 09:15:05;;;;;;;34.08;15.95;;;;;;;-146.64;100.00;74023.97;5110823;27;20108;-76
2022/01/10 09:17:31;;;;;;;36.78;14.52;;;;;;;-146.64;100.00;73495.47;5090436;27;20115;-75
2022/01/10 09:19:56;;;;;;;34.65;14.90;;;;;;;-146.64;100.00;72967.03;5094933;27;20571;-75
2022/01/10 09:22:22;;;;;;;38.50;18.88;;;;;;;-146.64;100.00;70325.94;5111768;27;20035;-75
2022/01/10 09:24:47;;;;;;;37.15;18.65;;;;;;;-146.64;100.00;68742.09;5096043;27;20175;-76
2022/01/10 09:27:13;;;;;;;45.58;18.00;;;;;;;-146.64;100.00;67158.91;5095702;27;20390;-75
2022/01/10 09:29:40;;;;;;;40.58;15.65;;;;;;;-146.64;100.00;63467.22;5115455;27;20019;-75
2022/01/10 09:32:06;;;;;;;35.72;16.23;;;;;;;-146.64;100.00;63730.81;5096047;27;20611;-75
2022/01/10 09:34:31;;;;;;;38.25;15.70;;;;;;;-146.64;100.00;61359.25;5124325;27;20027;-75
2022/01/10 09:36:57;;;;;;;38.00;14.93;;;;;;;-146.64;100.00;59252.38;5129031;27;20495;-75
2022/01/10 09:39:22;;;;;;;40.33;16.08;;;;;;;-146.64;100.00;61359.25;5131312;27;20038;-75
2022/01/10 09:41:48;;;;;;;38.20;15.45;;;;;;;-146.64;100.00;57672.94;5115170;27;20038;-75
2022/01/10 09:44:13;;;;;;;35.17;16.95;;;;;;;-146.64;100.00;57409.78;5094326;27;20061;-75
2022/01/10 09:46:38;;;;;;;36.10;16.38;;;;;;;-146.64;100.00;52193.03;5101455;27;20028;-75
2022/01/10 09:49:05;;;;;;;37.03;16.70;;;;;;;-146.64;100.00;49840.66;5104139;27;20030;-75
2022/01/10 09:51:32;;;;;;;29.23;14.82;;;;;;;-146.64;100.00;47516.34;5100523;27;20122;-75
2022/01/10 09:53:58;;;;;;;30.20;14.57;;;;;;;-146.64;100.00;50848.34;5091422;28;20698;-75
2022/01/10 09:56:24;;;;;;;44.78;15.32;;;;;;;-146.64;100.00;47561.47;5089957;28;20118;-75
2022/01/10 09:58:52;;;;;;;39.95;18.33;;;;;;;-146.64;100.00;46730.94;5107796;27;20120;-76
2022/01/10 10:01:17;;;;;;;44.47;17.27;;;;;;;-146.64;100.00;43683.09;5103813;27;20036;-75
2022/01/10 10:03:44;;;;;;;42.65;16.90;;;;;;;-146.64;100.00;42683.38;5082532;28;20027;-75
2022/01/10 10:06:10;;;;;;;;;;;;;;;-146.64;100.00;42400.72;5110353;27;20096;-75
2022/01/10 10:08:38;;;;;;;36.47;15.55;;;;;;;-146.64;100.00;42183.59;5092303;28;20355;-75
2022/01/10 10:11:06;;;;;;;33.83;15.18;;;;;;;-146.64;100.00;42208.19;5105054;28;20024;-75
2022/01/10 10:13:40;;;;;;;32.08;16.17;;;;;;;-146.64;100.00;41614.28;5098636;28;20410;-75
2022/01/10 10:16:12;;;;;;;43.28;16.73;;;;;;;-146.64;100.00;41319.41;5101747;28;20020;-75
2022/01/10 10:18:37;;;;;;;36.78;16.95;;;;;;;-146.64;100.00;41624.50;5092601;28;20027;-75
2022/01/10 10:21:03;;;;;;;37.90;16.05;;;;;;;-146.64;100.00;41274.34;5082196;28;20077;-75
2022/01/10 10:23:30;;;;;;;33.40;16.38;;;;;;;-146.64;100.00;41290.75;5108930;28;20024;-75
2022/01/10 10:25:56;;;;;;;38.28;16.40;;;;;;;-146.64;100.00;41200.66;5103778;27;20039;-75
2022/01/10 10:28:21;;;;;;;39.30;18.52;;;;;;;-146.64;100.00;41028.66;5094403;27;20045;-75
2022/01/10 10:30:47;;;;;;;45.25;19.73;;;;;;;-146.64;100.00;40942.66;5108217;27;20031;-75
2022/01/10 10:33:18;;;;;;;39.53;19.73;;;;;;;-146.64;100.00;41343.97;5104051;28;20028;-75
2022/01/10 10:35:45;;;;;;;42.53;20.05;;;;;;;-146.64;100.00;41249.78;5094066;27;20036;-75
2022/01/10 10:38:11;;;;;;;33.00;17.48;;;;;;;-146.64;100.00;41212.94;5080757;28;20615;-75
2022/01/10 10:40:41;;;;;;;39.50;16.42;;;;;;;-146.64;100.00;41352.16;5098769;27;20063;-75
2022/01/10 10:43:08;;;;;;;46.65;17.42;;;;;;;-146.64;100.00;41151.50;5096070;27;20104;-75
2022/01/10 10:45:34;;;;;;;41.45;17.42;;;;;;;-146.64;100.00;41157.66;5079657;28;20035;-75
2022/01/10 10:48:05;;;;;;;38.72;16.73;;;;;;;-146.64;100.00;41049.13;5099729;28;20039;-75
2022/01/10 10:50:34;;;;;;;44.00;18.33;;;;;;;-146.64;100.00;41102.38;5095203;27;20035;-75
2022/01/10 10:53:03;;;;;;;37.97;16.50;;;;;;;-146.64;100.00;41016.38;5098449;27;20049;-75
2022/01/10 10:55:29;;;;;;;44.83;17.27;;;;;;;-146.64;100.00;41284.59;5126623;27;20050;-75